sensor_id;sensor_type;location;lat;lon;timestamp;P1;durP1;ratioP1;P2;durP2;ratioP2
66342;SDS011;53144;51.524;5.080;2023-11-21T00:00:08;26.10;;;13.73;;
66342;SDS011;53144;51.524;5.080;2023-11-21T00:02:53;29.20;;;15.32;;
66342;SDS011;53144;51.524;5.080;2023-11-21T00:05:19;26.80;;;15.50;;
66342;SDS011;53144;51.524;5.080;2023-11-21T00:07:44;31.13;;;15.55;;
66342;SDS011;53144;51.524;5.080;2023-11-21T00:10:10;23.85;;;13.73;;
66342;SDS011;53144;51.524;5.080;2023-11-21T00:12:37;24.95;;;13.95;;
66342;SDS011;53144;51.524;5.080;2023-11-21T00:15:03;24.08;;;14.30;;
66342;SDS011;53144;51.524;5.080;2023-11-21T00:17:30;27.25;;;14.68;;
66342;SDS011;53144;51.524;5.080;2023-11-21T00:19:56;23.98;;;14.18;;
66342;SDS011;53144;51.524;5.080;2023-11-21T00:22:24;27.30;;;13.70;;
66342;SDS011;53144;51.524;5.080;2023-11-21T00:24:50;25.67;;;13.57;;
66342;SDS011;53144;51.524;5.080;2023-11-21T00:27:16;26.30;;;14.32;;
66342;SDS011;53144;51.524;5.080;2023-11-21T00:32:06;19.60;;;11.55;;
66342;SDS011;53144;51.524;5.080;2023-11-21T00:36:58;23.23;;;11.43;;
66342;SDS011;53144;51.524;5.080;2023-11-21T00:39:23;18.40;;;10.48;;
66342;SDS011;53144;51.524;5.080;2023-11-21T00:41:49;18.80;;;11.10;;
66342;SDS011;53144;51.524;5.080;2023-11-21T00:44:15;22.45;;;11.75;;
66342;SDS011;53144;51.524;5.080;2023-11-21T00:46:41;21.15;;;11.75;;
66342;SDS011;53144;51.524;5.080;2023-11-21T00:49:06;18.95;;;11.88;;
66342;SDS011;53144;51.524;5.080;2023-11-21T00:51:32;18.17;;;11.40;;
66342;SDS011;53144;51.524;5.080;2023-11-21T00:53:58;22.05;;;11.63;;
66342;SDS011;53144;51.524;5.080;2023-11-21T00:58:49;15.25;;;11.07;;
66342;SDS011;53144;51.524;5.080;2023-11-21T01:01:17;21.90;;;11.07;;
66342;SDS011;53144;51.524;5.080;2023-11-21T01:06:08;21.10;;;12.27;;
66342;SDS011;53144;51.524;5.080;2023-11-21T01:08:34;22.52;;;11.35;;
66342;SDS011;53144;51.524;5.080;2023-11-21T01:11:00;18.70;;;9.60;;
66342;SDS011;53144;51.524;5.080;2023-11-21T01:13:26;21.67;;;10.43;;
66342;SDS011;53144;51.524;5.080;2023-11-21T01:15:53;19.20;;;9.68;;
66342;SDS011;53144;51.524;5.080;2023-11-21T01:18:18;25.95;;;9.75;;
66342;SDS011;53144;51.524;5.080;2023-11-21T01:20:43;26.40;;;10.13;;
66342;SDS011;53144;51.524;5.080;2023-11-21T01:23:12;30.35;;;10.65;;
66342;SDS011;53144;51.524;5.080;2023-11-21T01:25:40;32.65;;;11.85;;
66342;SDS011;53144;51.524;5.080;2023-11-21T01:28:05;20.85;;;11.43;;
66342;SDS011;53144;51.524;5.080;2023-11-21T01:30:31;51.40;;;12.55;;
66342;SDS011;53144;51.524;5.080;2023-11-21T01:32:57;90.07;;;14.65;;
66342;SDS011;53144;51.524;5.080;2023-11-21T01:35:23;64.88;;;13.93;;
66342;SDS011;53144;51.524;5.080;2023-11-21T01:37:48;69.78;;;14.57;;
66342;SDS011;53144;51.524;5.080;2023-11-21T01:40:14;54.35;;;14.20;;
66342;SDS011;53144;51.524;5.080;2023-11-21T01:42:40;78.90;;;13.82;;
66342;SDS011;53144;51.524;5.080;2023-11-21T01:45:06;63.13;;;13.18;;
66342;SDS011;53144;51.524;5.080;2023-11-21T01:47:32;157.40;;;14.07;;
66342;SDS011;53144;51.524;5.080;2023-11-21T01:49:59;73.05;;;12.35;;
66342;SDS011;53144;51.524;5.080;2023-11-21T01:52:24;54.63;;;12.73;;
66342;SDS011;53144;51.524;5.080;2023-11-21T01:57:19;50.05;;;12.70;;
66342;SDS011;53144;51.524;5.080;2023-11-21T01:59:45;56.40;;;13.68;;
66342;SDS011;53144;51.524;5.080;2023-11-21T02:02:14;48.80;;;12.90;;
66342;SDS011;53144;51.524;5.080;2023-11-21T02:04:40;48.92;;;14.70;;
66342;SDS011;53144;51.524;5.080;2023-11-21T02:07:06;80.90;;;13.98;;
66342;SDS011;53144;51.524;5.080;2023-11-21T02:09:31;53.80;;;13.68;;
66342;SDS011;53144;51.524;5.080;2023-11-21T02:11:58;27.83;;;12.20;;
66342;SDS011;53144;51.524;5.080;2023-11-21T02:14:25;40.28;;;13.23;;
66342;SDS011;53144;51.524;5.080;2023-11-21T02:16:51;47.03;;;13.70;;
66342;SDS011;53144;51.524;5.080;2023-11-21T02:19:18;40.47;;;12.90;;
66342;SDS011;53144;51.524;5.080;2023-11-21T02:21:47;26.83;;;13.20;;
66342;SDS011;53144;51.524;5.080;2023-11-21T02:24:14;32.50;;;12.70;;
66342;SDS011;53144;51.524;5.080;2023-11-21T02:26:42;40.50;;;14.05;;
66342;SDS011;53144;51.524;5.080;2023-11-21T02:29:08;41.42;;;16.45;;
66342;SDS011;53144;51.524;5.080;2023-11-21T02:31:37;51.55;;;15.18;;
66342;SDS011;53144;51.524;5.080;2023-11-21T02:34:10;43.63;;;15.70;;
66342;SDS011;53144;51.524;5.080;2023-11-21T02:36:38;47.85;;;14.93;;
66342;SDS011;53144;51.524;5.080;2023-11-21T02:39:03;72.82;;;15.98;;
66342;SDS011;53144;51.524;5.080;2023-11-21T02:41:29;41.30;;;15.15;;
66342;SDS011;53144;51.524;5.080;2023-11-21T02:43:54;27.30;;;14.48;;
66342;SDS011;53144;51.524;5.080;2023-11-21T02:46:20;38.28;;;14.32;;
66342;SDS011;53144;51.524;5.080;2023-11-21T02:48:46;28.52;;;14.73;;
66342;SDS011;53144;51.524;5.080;2023-11-21T02:51:11;21.30;;;13.32;;
66342;SDS011;53144;51.524;5.080;2023-11-21T02:53:36;30.50;;;14.18;;
66342;SDS011;53144;51.524;5.080;2023-11-21T02:56:04;29.73;;;14.00;;
66342;SDS011;53144;51.524;5.080;2023-11-21T03:00:55;24.85;;;14.90;;
66342;SDS011;53144;51.524;5.080;2023-11-21T03:03:24;20.70;;;13.38;;
66342;SDS011;53144;51.524;5.080;2023-11-21T03:05:50;25.42;;;13.77;;
66342;SDS011;53144;51.524;5.080;2023-11-21T03:08:15;30.42;;;13.15;;
66342;SDS011;53144;51.524;5.080;2023-11-21T03:10:41;27.30;;;14.50;;
66342;SDS011;53144;51.524;5.080;2023-11-21T03:15:33;18.88;;;13.43;;
66342;SDS011;53144;51.524;5.080;2023-11-21T03:18:00;24.02;;;13.85;;
66342;SDS011;53144;51.524;5.080;2023-11-21T03:20:25;23.85;;;13.73;;
66342;SDS011;53144;51.524;5.080;2023-11-21T03:25:16;17.60;;;11.93;;
66342;SDS011;53144;51.524;5.080;2023-11-21T03:27:42;21.88;;;14.05;;
66342;SDS011;53144;51.524;5.080;2023-11-21T03:30:09;19.52;;;12.77;;
66342;SDS011;53144;51.524;5.080;2023-11-21T03:32:36;22.55;;;13.70;;
66342;SDS011;53144;51.524;5.080;2023-11-21T03:35:01;20.02;;;13.65;;
66342;SDS011;53144;51.524;5.080;2023-11-21T03:39:53;18.92;;;12.60;;
66342;SDS011;53144;51.524;5.080;2023-11-21T03:42:22;18.67;;;13.30;;
66342;SDS011;53144;51.524;5.080;2023-11-21T03:44:47;17.67;;;13.68;;
66342;SDS011;53144;51.524;5.080;2023-11-21T03:47:12;22.95;;;14.52;;
66342;SDS011;53144;51.524;5.080;2023-11-21T03:49:38;19.52;;;14.27;;
66342;SDS011;53144;51.524;5.080;2023-11-21T03:54:29;21.15;;;13.40;;
66342;SDS011;53144;51.524;5.080;2023-11-21T03:56:54;19.50;;;13.60;;
66342;SDS011;53144;51.524;5.080;2023-11-21T03:59:20;20.98;;;13.75;;
66342;SDS011;53144;51.524;5.080;2023-11-21T04:01:45;18.00;;;13.15;;
66342;SDS011;53144;51.524;5.080;2023-11-21T04:04:11;18.02;;;12.73;;
66342;SDS011;53144;51.524;5.080;2023-11-21T04:09:02;16.23;;;11.70;;
66342;SDS011;53144;51.524;5.080;2023-11-21T04:11:29;16.92;;;11.90;;
66342;SDS011;53144;51.524;5.080;2023-11-21T04:13:55;21.45;;;13.02;;
66342;SDS011;53144;51.524;5.080;2023-11-21T04:16:20;18.52;;;12.60;;
66342;SDS011;53144;51.524;5.080;2023-11-21T04:18:46;19.77;;;11.98;;
66342;SDS011;53144;51.524;5.080;2023-11-21T04:23:37;22.25;;;12.80;;
66342;SDS011;53144;51.524;5.080;2023-11-21T04:26:02;18.67;;;13.27;;
66342;SDS011;53144;51.524;5.080;2023-11-21T04:28:28;18.98;;;13.43;;
66342;SDS011;53144;51.524;5.080;2023-11-21T04:30:54;17.80;;;13.43;;
66342;SDS011;53144;51.524;5.080;2023-11-21T04:33:19;19.85;;;12.68;;
66342;SDS011;53144;51.524;5.080;2023-11-21T04:35:46;19.23;;;13.40;;
66342;SDS011;53144;51.524;5.080;2023-11-21T04:38:12;17.67;;;13.32;;
66342;SDS011;53144;51.524;5.080;2023-11-21T04:40:37;20.60;;;13.13;;
66342;SDS011;53144;51.524;5.080;2023-11-21T04:43:02;19.67;;;13.00;;
66342;SDS011;53144;51.524;5.080;2023-11-21T04:45:29;20.75;;;13.00;;
66342;SDS011;53144;51.524;5.080;2023-11-21T04:47:54;20.15;;;12.82;;
66342;SDS011;53144;51.524;5.080;2023-11-21T04:50:19;21.27;;;13.23;;
66342;SDS011;53144;51.524;5.080;2023-11-21T04:52:45;19.80;;;12.95;;
66342;SDS011;53144;51.524;5.080;2023-11-21T04:55:10;23.08;;;13.30;;
66342;SDS011;53144;51.524;5.080;2023-11-21T04:57:36;24.17;;;14.15;;
66342;SDS011;53144;51.524;5.080;2023-11-21T05:02:31;26.80;;;13.93;;
66342;SDS011;53144;51.524;5.080;2023-11-21T05:04:59;27.13;;;13.32;;
66342;SDS011;53144;51.524;5.080;2023-11-21T05:07:24;25.02;;;14.32;;
66342;SDS011;53144;51.524;5.080;2023-11-21T05:09:52;23.55;;;13.32;;
66342;SDS011;53144;51.524;5.080;2023-11-21T05:12:17;22.20;;;12.43;;
66342;SDS011;53144;51.524;5.080;2023-11-21T05:14:43;26.85;;;13.57;;
66342;SDS011;53144;51.524;5.080;2023-11-21T05:17:08;25.75;;;13.48;;
66342;SDS011;53144;51.524;5.080;2023-11-21T05:19:34;28.70;;;14.18;;
66342;SDS011;53144;51.524;5.080;2023-11-21T05:22:00;25.95;;;13.80;;
66342;SDS011;53144;51.524;5.080;2023-11-21T05:24:26;29.02;;;13.63;;
66342;SDS011;53144;51.524;5.080;2023-11-21T05:29:17;25.35;;;12.93;;
66342;SDS011;53144;51.524;5.080;2023-11-21T05:31:43;20.60;;;13.60;;
66342;SDS011;53144;51.524;5.080;2023-11-21T05:34:08;25.77;;;13.82;;
66342;SDS011;53144;51.524;5.080;2023-11-21T05:36:34;21.63;;;12.50;;
66342;SDS011;53144;51.524;5.080;2023-11-21T05:38:59;26.02;;;13.20;;
66342;SDS011;53144;51.524;5.080;2023-11-21T05:41:24;24.27;;;14.23;;
66342;SDS011;53144;51.524;5.080;2023-11-21T05:43:50;22.70;;;12.57;;
66342;SDS011;53144;51.524;5.080;2023-11-21T05:46:16;21.88;;;12.75;;
66342;SDS011;53144;51.524;5.080;2023-11-21T05:48:42;26.13;;;13.05;;
66342;SDS011;53144;51.524;5.080;2023-11-21T05:51:07;22.00;;;13.55;;
66342;SDS011;53144;51.524;5.080;2023-11-21T05:53:33;23.63;;;12.70;;
66342;SDS011;53144;51.524;5.080;2023-11-21T05:58:24;19.90;;;11.75;;
66342;SDS011;53144;51.524;5.080;2023-11-21T06:03:15;21.63;;;13.02;;
66342;SDS011;53144;51.524;5.080;2023-11-21T06:05:42;24.63;;;13.23;;
66342;SDS011;53144;51.524;5.080;2023-11-21T06:08:07;23.25;;;13.02;;
66342;SDS011;53144;51.524;5.080;2023-11-21T06:10:33;20.70;;;12.05;;
66342;SDS011;53144;51.524;5.080;2023-11-21T06:15:24;18.15;;;10.80;;
66342;SDS011;53144;51.524;5.080;2023-11-21T06:17:50;18.77;;;11.63;;
66342;SDS011;53144;51.524;5.080;2023-11-21T06:20:19;22.58;;;11.73;;
66342;SDS011;53144;51.524;5.080;2023-11-21T06:22:46;21.45;;;12.82;;
66342;SDS011;53144;51.524;5.080;2023-11-21T06:25:13;23.27;;;12.68;;
66342;SDS011;53144;51.524;5.080;2023-11-21T06:27:42;25.50;;;12.48;;
66342;SDS011;53144;51.524;5.080;2023-11-21T06:30:09;18.13;;;12.48;;
66342;SDS011;53144;51.524;5.080;2023-11-21T06:32:36;20.23;;;13.05;;
66342;SDS011;53144;51.524;5.080;2023-11-21T06:35:03;24.30;;;13.48;;
66342;SDS011;53144;51.524;5.080;2023-11-21T06:37:29;26.75;;;13.25;;
66342;SDS011;53144;51.524;5.080;2023-11-21T06:39:55;23.95;;;13.40;;
66342;SDS011;53144;51.524;5.080;2023-11-21T06:42:23;27.05;;;14.30;;
66342;SDS011;53144;51.524;5.080;2023-11-21T06:47:16;29.25;;;14.38;;
66342;SDS011;53144;51.524;5.080;2023-11-21T06:49:42;20.98;;;13.52;;
66342;SDS011;53144;51.524;5.080;2023-11-21T06:54:34;26.30;;;13.98;;
66342;SDS011;53144;51.524;5.080;2023-11-21T06:56:59;23.05;;;13.48;;
66342;SDS011;53144;51.524;5.080;2023-11-21T07:01:50;21.90;;;12.20;;
66342;SDS011;53144;51.524;5.080;2023-11-21T07:04:16;21.35;;;13.20;;
66342;SDS011;53144;51.524;5.080;2023-11-21T07:06:43;23.92;;;12.70;;
66342;SDS011;53144;51.524;5.080;2023-11-21T07:09:08;21.45;;;12.75;;
66342;SDS011;53144;51.524;5.080;2023-11-21T07:11:34;28.17;;;13.98;;
66342;SDS011;53144;51.524;5.080;2023-11-21T07:16:32;27.02;;;14.07;;
66342;SDS011;53144;51.524;5.080;2023-11-21T07:18:59;32.88;;;15.50;;
66342;SDS011;53144;51.524;5.080;2023-11-21T07:21:25;30.23;;;16.08;;
66342;SDS011;53144;51.524;5.080;2023-11-21T07:26:15;25.52;;;13.60;;
66342;SDS011;53144;51.524;5.080;2023-11-21T07:31:06;34.47;;;13.60;;
66342;SDS011;53144;51.524;5.080;2023-11-21T07:35:57;26.27;;;14.45;;
66342;SDS011;53144;51.524;5.080;2023-11-21T07:38:22;31.52;;;14.95;;
66342;SDS011;53144;51.524;5.080;2023-11-21T07:40:48;30.05;;;15.13;;
66342;SDS011;53144;51.524;5.080;2023-11-21T07:45:38;23.35;;;13.82;;
66342;SDS011;53144;51.524;5.080;2023-11-21T07:50:30;28.95;;;14.05;;
66342;SDS011;53144;51.524;5.080;2023-11-21T07:55:22;29.50;;;13.13;;
66342;SDS011;53144;51.524;5.080;2023-11-21T08:00:13;30.73;;;14.48;;
66342;SDS011;53144;51.524;5.080;2023-11-21T08:02:40;28.38;;;14.95;;
66342;SDS011;53144;51.524;5.080;2023-11-21T08:05:11;32.55;;;14.10;;
66342;SDS011;53144;51.524;5.080;2023-11-21T08:07:37;30.48;;;15.63;;
66342;SDS011;53144;51.524;5.080;2023-11-21T08:12:29;29.52;;;14.77;;
66342;SDS011;53144;51.524;5.080;2023-11-21T08:17:20;29.60;;;13.52;;
66342;SDS011;53144;51.524;5.080;2023-11-21T08:19:49;32.92;;;15.48;;
66342;SDS011;53144;51.524;5.080;2023-11-21T08:22:16;35.25;;;16.65;;
66342;SDS011;53144;51.524;5.080;2023-11-21T08:24:43;36.08;;;15.65;;
66342;SDS011;53144;51.524;5.080;2023-11-21T08:29:34;36.97;;;15.93;;
66342;SDS011;53144;51.524;5.080;2023-11-21T08:32:01;31.40;;;15.00;;
66342;SDS011;53144;51.524;5.080;2023-11-21T08:34:27;30.17;;;14.15;;
66342;SDS011;53144;51.524;5.080;2023-11-21T08:39:19;37.88;;;16.27;;
66342;SDS011;53144;51.524;5.080;2023-11-21T08:44:09;40.63;;;15.70;;
66342;SDS011;53144;51.524;5.080;2023-11-21T08:46:36;36.30;;;16.50;;
66342;SDS011;53144;51.524;5.080;2023-11-21T08:49:03;34.38;;;15.27;;
66342;SDS011;53144;51.524;5.080;2023-11-21T08:53:53;34.67;;;15.05;;
66342;SDS011;53144;51.524;5.080;2023-11-21T08:58:45;36.38;;;16.00;;
66342;SDS011;53144;51.524;5.080;2023-11-21T09:01:12;34.08;;;16.52;;
66342;SDS011;53144;51.524;5.080;2023-11-21T09:03:38;38.72;;;16.08;;
66342;SDS011;53144;51.524;5.080;2023-11-21T09:08:29;42.13;;;17.58;;
66342;SDS011;53144;51.524;5.080;2023-11-21T09:13:20;41.65;;;17.38;;
66342;SDS011;53144;51.524;5.080;2023-11-21T09:18:14;39.25;;;16.92;;
66342;SDS011;53144;51.524;5.080;2023-11-21T09:20:43;42.67;;;17.73;;
66342;SDS011;53144;51.524;5.080;2023-11-21T09:23:11;43.42;;;17.25;;
66342;SDS011;53144;51.524;5.080;2023-11-21T09:28:03;42.53;;;17.50;;
66342;SDS011;53144;51.524;5.080;2023-11-21T09:30:33;42.30;;;18.17;;
66342;SDS011;53144;51.524;5.080;2023-11-21T09:35:24;40.85;;;16.80;;
66342;SDS011;53144;51.524;5.080;2023-11-21T09:40:17;30.75;;;15.07;;
66342;SDS011;53144;51.524;5.080;2023-11-21T09:42:56;31.30;;;14.85;;
66342;SDS011;53144;51.524;5.080;2023-11-21T09:45:26;32.13;;;15.18;;
66342;SDS011;53144;51.524;5.080;2023-11-21T09:47:54;27.77;;;14.60;;
66342;SDS011;53144;51.524;5.080;2023-11-21T09:50:22;23.48;;;13.40;;
66342;SDS011;53144;51.524;5.080;2023-11-21T09:55:20;23.13;;;12.23;;
66342;SDS011;53144;51.524;5.080;2023-11-21T09:57:47;27.30;;;12.27;;
66342;SDS011;53144;51.524;5.080;2023-11-21T10:00:14;19.58;;;10.98;;
66342;SDS011;53144;51.524;5.080;2023-11-21T10:02:42;15.32;;;8.88;;
66342;SDS011;53144;51.524;5.080;2023-11-21T10:07:36;12.60;;;7.90;;
66342;SDS011;53144;51.524;5.080;2023-11-21T10:10:04;12.73;;;8.02;;
66342;SDS011;53144;51.524;5.080;2023-11-21T10:12:30;11.80;;;7.85;;
66342;SDS011;53144;51.524;5.080;2023-11-21T10:14:57;11.10;;;7.50;;
66342;SDS011;53144;51.524;5.080;2023-11-21T10:17:25;12.30;;;7.38;;
66342;SDS011;53144;51.524;5.080;2023-11-21T10:20:01;12.38;;;7.45;;
66342;SDS011;53144;51.524;5.080;2023-11-21T10:22:28;11.43;;;7.30;;
66342;SDS011;53144;51.524;5.080;2023-11-21T10:27:19;14.63;;;7.25;;
66342;SDS011;53144;51.524;5.080;2023-11-21T10:32:10;9.93;;;6.32;;
66342;SDS011;53144;51.524;5.080;2023-11-21T10:34:37;11.75;;;7.28;;
66342;SDS011;53144;51.524;5.080;2023-11-21T10:39:36;10.85;;;7.00;;
66342;SDS011;53144;51.524;5.080;2023-11-21T10:44:27;13.80;;;6.85;;
66342;SDS011;53144;51.524;5.080;2023-11-21T10:49:24;13.27;;;6.90;;
66342;SDS011;53144;51.524;5.080;2023-11-21T10:51:50;12.65;;;6.47;;
66342;SDS011;53144;51.524;5.080;2023-11-21T10:54:19;11.13;;;6.25;;
66342;SDS011;53144;51.524;5.080;2023-11-21T10:56:46;9.05;;;6.45;;
66342;SDS011;53144;51.524;5.080;2023-11-21T10:59:16;10.50;;;7.30;;
66342;SDS011;53144;51.524;5.080;2023-11-21T11:04:09;8.65;;;6.10;;
66342;SDS011;53144;51.524;5.080;2023-11-21T11:06:42;8.02;;;5.15;;
66342;SDS011;53144;51.524;5.080;2023-11-21T11:09:09;8.40;;;5.85;;
66342;SDS011;53144;51.524;5.080;2023-11-21T11:11:39;7.25;;;5.53;;
66342;SDS011;53144;51.524;5.080;2023-11-21T11:14:06;7.63;;;5.88;;
66342;SDS011;53144;51.524;5.080;2023-11-21T11:16:35;10.13;;;6.55;;
66342;SDS011;53144;51.524;5.080;2023-11-21T11:19:04;9.88;;;6.03;;
66342;SDS011;53144;51.524;5.080;2023-11-21T11:26:55;10.82;;;6.65;;
66342;SDS011;53144;51.524;5.080;2023-11-21T11:29:37;8.27;;;5.80;;
66342;SDS011;53144;51.524;5.080;2023-11-21T11:32:55;9.13;;;6.50;;
66342;SDS011;53144;51.524;5.080;2023-11-21T11:35:24;8.65;;;6.07;;
66342;SDS011;53144;51.524;5.080;2023-11-21T11:37:58;9.00;;;6.25;;
66342;SDS011;53144;51.524;5.080;2023-11-21T11:43:01;7.80;;;5.85;;
66342;SDS011;53144;51.524;5.080;2023-11-21T11:45:33;7.68;;;5.43;;
66342;SDS011;53144;51.524;5.080;2023-11-21T11:48:00;10.55;;;6.07;;
66342;SDS011;53144;51.524;5.080;2023-11-21T11:50:27;6.65;;;4.95;;
66342;SDS011;53144;51.524;5.080;2023-11-21T11:55:21;7.65;;;4.68;;
66342;SDS011;53144;51.524;5.080;2023-11-21T11:57:54;7.68;;;5.00;;
66342;SDS011;53144;51.524;5.080;2023-11-21T12:02:52;15.40;;;5.38;;
66342;SDS011;53144;51.524;5.080;2023-11-21T12:05:28;10.32;;;6.00;;
66342;SDS011;53144;51.524;5.080;2023-11-21T12:08:01;8.40;;;5.97;;
66342;SDS011;53144;51.524;5.080;2023-11-21T12:10:29;8.85;;;5.60;;
66342;SDS011;53144;51.524;5.080;2023-11-21T12:13:02;7.75;;;5.47;;
66342;SDS011;53144;51.524;5.080;2023-11-21T12:15:34;8.25;;;5.43;;
66342;SDS011;53144;51.524;5.080;2023-11-21T12:18:00;7.95;;;6.28;;
66342;SDS011;53144;51.524;5.080;2023-11-21T12:22:52;9.70;;;6.47;;
66342;SDS011;53144;51.524;5.080;2023-11-21T12:27:46;8.00;;;6.45;;
66342;SDS011;53144;51.524;5.080;2023-11-21T12:30:16;8.43;;;6.95;;
66342;SDS011;53144;51.524;5.080;2023-11-21T12:32:44;10.30;;;7.25;;
66342;SDS011;53144;51.524;5.080;2023-11-21T12:35:13;10.77;;;7.68;;
66342;SDS011;53144;51.524;5.080;2023-11-21T12:40:08;11.88;;;7.25;;
66342;SDS011;53144;51.524;5.080;2023-11-21T12:42:40;11.98;;;7.70;;
66342;SDS011;53144;51.524;5.080;2023-11-21T12:45:18;11.93;;;7.95;;
66342;SDS011;53144;51.524;5.080;2023-11-21T12:48:10;15.90;;;8.32;;
66342;SDS011;53144;51.524;5.080;2023-11-21T12:50:37;12.18;;;8.00;;
66342;SDS011;53144;51.524;5.080;2023-11-21T12:53:06;11.32;;;8.05;;
66342;SDS011;53144;51.524;5.080;2023-11-21T12:55:43;12.80;;;8.30;;
66342;SDS011;53144;51.524;5.080;2023-11-21T12:58:15;15.05;;;8.55;;
66342;SDS011;53144;51.524;5.080;2023-11-21T13:03:13;14.05;;;8.75;;
66342;SDS011;53144;51.524;5.080;2023-11-21T13:05:50;12.10;;;8.60;;
66342;SDS011;53144;51.524;5.080;2023-11-21T13:08:20;14.48;;;9.52;;
66342;SDS011;53144;51.524;5.080;2023-11-21T13:10:49;14.55;;;9.25;;
66342;SDS011;53144;51.524;5.080;2023-11-21T13:13:22;17.33;;;9.15;;
66342;SDS011;53144;51.524;5.080;2023-11-21T13:18:17;13.38;;;8.30;;
66342;SDS011;53144;51.524;5.080;2023-11-21T13:23:10;17.05;;;8.07;;
66342;SDS011;53144;51.524;5.080;2023-11-21T13:25:41;12.38;;;7.82;;
66342;SDS011;53144;51.524;5.080;2023-11-21T13:28:07;11.15;;;7.90;;
66342;SDS011;53144;51.524;5.080;2023-11-21T13:33:05;11.40;;;8.02;;
66342;SDS011;53144;51.524;5.080;2023-11-21T13:35:32;16.70;;;9.45;;
66342;SDS011;53144;51.524;5.080;2023-11-21T13:38:11;12.80;;;8.32;;
66342;SDS011;53144;51.524;5.080;2023-11-21T13:40:39;15.63;;;9.02;;
66342;SDS011;53144;51.524;5.080;2023-11-21T13:43:09;15.90;;;9.57;;
66342;SDS011;53144;51.524;5.080;2023-11-21T13:48:01;14.15;;;9.00;;
66342;SDS011;53144;51.524;5.080;2023-11-21T13:53:02;16.02;;;9.68;;
66342;SDS011;53144;51.524;5.080;2023-11-21T13:55:34;18.65;;;9.98;;
66342;SDS011;53144;51.524;5.080;2023-11-21T13:58:00;16.33;;;9.95;;
66342;SDS011;53144;51.524;5.080;2023-11-21T14:00:27;16.63;;;9.90;;
66342;SDS011;53144;51.524;5.080;2023-11-21T14:03:12;16.38;;;9.30;;
66342;SDS011;53144;51.524;5.080;2023-11-21T14:05:49;16.02;;;9.98;;
66342;SDS011;53144;51.524;5.080;2023-11-21T14:08:18;13.75;;;8.80;;
66342;SDS011;53144;51.524;5.080;2023-11-21T14:10:49;14.70;;;9.10;;
66342;SDS011;53144;51.524;5.080;2023-11-21T14:13:25;14.27;;;9.43;;
66342;SDS011;53144;51.524;5.080;2023-11-21T14:15:52;17.35;;;9.38;;
66342;SDS011;53144;51.524;5.080;2023-11-21T14:18:25;15.23;;;9.43;;
66342;SDS011;53144;51.524;5.080;2023-11-21T14:21:03;15.65;;;9.57;;
66342;SDS011;53144;51.524;5.080;2023-11-21T14:23:30;13.85;;;8.57;;
66342;SDS011;53144;51.524;5.080;2023-11-21T14:28:22;14.70;;;8.10;;
66342;SDS011;53144;51.524;5.080;2023-11-21T14:30:48;14.35;;;8.43;;
66342;SDS011;53144;51.524;5.080;2023-11-21T14:35:41;13.57;;;7.13;;
66342;SDS011;53144;51.524;5.080;2023-11-21T14:40:32;11.63;;;7.45;;
66342;SDS011;53144;51.524;5.080;2023-11-21T14:43:00;11.27;;;7.35;;
66342;SDS011;53144;51.524;5.080;2023-11-21T14:47:52;10.70;;;6.82;;
66342;SDS011;53144;51.524;5.080;2023-11-21T14:50:35;10.95;;;7.10;;
66342;SDS011;53144;51.524;5.080;2023-11-21T14:53:07;11.95;;;7.60;;
66342;SDS011;53144;51.524;5.080;2023-11-21T14:55:37;12.63;;;7.30;;
66342;SDS011;53144;51.524;5.080;2023-11-21T14:58:16;10.75;;;7.13;;
66342;SDS011;53144;51.524;5.080;2023-11-21T15:00:54;10.60;;;6.63;;
66342;SDS011;53144;51.524;5.080;2023-11-21T15:03:23;10.75;;;7.20;;
66342;SDS011;53144;51.524;5.080;2023-11-21T15:06:01;10.35;;;6.80;;
66342;SDS011;53144;51.524;5.080;2023-11-21T15:08:50;10.57;;;6.25;;
66342;SDS011;53144;51.524;5.080;2023-11-21T15:11:25;12.68;;;6.78;;
66342;SDS011;53144;51.524;5.080;2023-11-21T15:13:55;9.73;;;6.25;;
66342;SDS011;53144;51.524;5.080;2023-11-21T15:16:22;11.25;;;6.85;;
66342;SDS011;53144;51.524;5.080;2023-11-21T15:21:13;11.25;;;6.55;;
66342;SDS011;53144;51.524;5.080;2023-11-21T15:26:06;14.02;;;7.80;;
66342;SDS011;53144;51.524;5.080;2023-11-21T15:28:33;13.02;;;8.70;;
66342;SDS011;53144;51.524;5.080;2023-11-21T15:33:24;16.00;;;9.25;;
66342;SDS011;53144;51.524;5.080;2023-11-21T15:35:52;16.65;;;9.50;;
66342;SDS011;53144;51.524;5.080;2023-11-21T15:38:19;18.00;;;10.10;;
66342;SDS011;53144;51.524;5.080;2023-11-21T15:43:10;17.90;;;11.13;;
66342;SDS011;53144;51.524;5.080;2023-11-21T15:48:01;18.98;;;10.23;;
66342;SDS011;53144;51.524;5.080;2023-11-21T15:52:52;16.83;;;10.32;;
66342;SDS011;53144;51.524;5.080;2023-11-21T15:55:19;19.15;;;11.18;;
66342;SDS011;53144;51.524;5.080;2023-11-21T16:00:10;18.35;;;10.80;;
66342;SDS011;53144;51.524;5.080;2023-11-21T16:02:41;17.58;;;11.18;;
66342;SDS011;53144;51.524;5.080;2023-11-21T16:05:08;17.13;;;9.77;;
66342;SDS011;53144;51.524;5.080;2023-11-21T16:10:00;19.98;;;10.57;;
66342;SDS011;53144;51.524;5.080;2023-11-21T16:14:54;19.70;;;11.15;;
66342;SDS011;53144;51.524;5.080;2023-11-21T16:17:19;19.33;;;10.85;;
66342;SDS011;53144;51.524;5.080;2023-11-21T16:19:46;21.90;;;11.85;;
66342;SDS011;53144;51.524;5.080;2023-11-21T16:24:38;20.83;;;12.25;;
66342;SDS011;53144;51.524;5.080;2023-11-21T16:29:29;15.95;;;11.00;;
66342;SDS011;53144;51.524;5.080;2023-11-21T16:31:58;15.20;;;8.38;;
66342;SDS011;53144;51.524;5.080;2023-11-21T16:34:25;18.23;;;10.57;;
66342;SDS011;53144;51.524;5.080;2023-11-21T16:36:52;20.83;;;10.35;;
66342;SDS011;53144;51.524;5.080;2023-11-21T16:41:47;14.60;;;9.20;;
66342;SDS011;53144;51.524;5.080;2023-11-21T16:46:48;16.67;;;8.82;;
66342;SDS011;53144;51.524;5.080;2023-11-21T16:49:22;22.73;;;11.65;;
66342;SDS011;53144;51.524;5.080;2023-11-21T16:51:48;21.52;;;11.40;;
66342;SDS011;53144;51.524;5.080;2023-11-21T16:54:15;23.67;;;11.63;;
66342;SDS011;53144;51.524;5.080;2023-11-21T16:59:06;26.13;;;13.00;;
66342;SDS011;53144;51.524;5.080;2023-11-21T17:03:57;21.63;;;11.27;;
66342;SDS011;53144;51.524;5.080;2023-11-21T17:11:15;22.70;;;11.35;;
66342;SDS011;53144;51.524;5.080;2023-11-21T17:16:06;24.13;;;13.18;;
66342;SDS011;53144;51.524;5.080;2023-11-21T17:20:57;25.23;;;13.82;;
66342;SDS011;53144;51.524;5.080;2023-11-21T17:25:48;23.63;;;12.57;;
66342;SDS011;53144;51.524;5.080;2023-11-21T17:30:39;19.60;;;12.30;;
66342;SDS011;53144;51.524;5.080;2023-11-21T17:35:31;20.10;;;12.23;;
66342;SDS011;53144;51.524;5.080;2023-11-21T17:37:57;20.75;;;13.18;;
66342;SDS011;53144;51.524;5.080;2023-11-21T17:40:23;20.13;;;13.15;;
66342;SDS011;53144;51.524;5.080;2023-11-21T17:42:52;18.33;;;13.20;;
66342;SDS011;53144;51.524;5.080;2023-11-21T17:45:17;17.55;;;12.20;;
66342;SDS011;53144;51.524;5.080;2023-11-21T17:47:43;15.60;;;11.45;;
66342;SDS011;53144;51.524;5.080;2023-11-21T17:52:35;15.32;;;12.13;;
66342;SDS011;53144;51.524;5.080;2023-11-21T17:55:02;18.27;;;12.35;;
66342;SDS011;53144;51.524;5.080;2023-11-21T17:57:29;14.07;;;11.52;;
66342;SDS011;53144;51.524;5.080;2023-11-21T17:59:55;15.27;;;12.15;;
66342;SDS011;53144;51.524;5.080;2023-11-21T18:02:20;15.93;;;11.57;;
66342;SDS011;53144;51.524;5.080;2023-11-21T18:07:11;15.07;;;11.05;;
66342;SDS011;53144;51.524;5.080;2023-11-21T18:12:04;15.95;;;11.52;;